createdAt,value
2022-11-17T00:00:55.689Z,9.661614
2022-11-17T00:01:55.720Z,9.661596
2022-11-17T00:02:55.735Z,9.661871
2022-11-17T00:03:55.704Z,9.661551
2022-11-17T00:04:55.654Z,9.661604
2022-11-17T00:05:55.665Z,9.661654
2022-11-17T00:06:55.671Z,9.661592
2022-11-17T00:07:55.683Z,9.661386
2022-11-17T00:08:55.625Z,9.661372
2022-11-17T00:09:55.619Z,9.661489
2022-11-17T00:10:55.627Z,9.661514
2022-11-17T00:11:55.605Z,9.661429
2022-11-17T00:12:55.603Z,9.661489
2022-11-17T00:13:55.628Z,9.661390
2022-11-17T00:14:55.593Z,9.662475
2022-11-17T00:15:55.590Z,9.661758
2022-11-17T00:16:55.619Z,9.661200
2022-11-17T00:17:55.605Z,9.661390
2022-11-17T00:18:55.600Z,9.661358
2022-11-17T00:19:55.653Z,9.661613
2022-11-17T00:20:55.570Z,9.661567
2022-11-17T00:21:55.534Z,9.661644
2022-11-17T00:22:55.539Z,9.661651
2022-11-17T00:23:55.620Z,9.661700
2022-11-17T00:24:55.544Z,9.661493
2022-11-17T00:25:55.510Z,9.661633
2022-11-17T00:26:55.506Z,9.661762
2022-11-17T00:27:56.394Z,9.661457
2022-11-17T00:28:55.491Z,9.661453
2022-11-17T00:29:55.520Z,9.661453
2022-11-17T00:30:55.476Z,9.661384
2022-11-17T00:31:55.460Z,9.661404
2022-11-17T00:32:55.454Z,9.661778
2022-11-17T00:33:55.456Z,9.661751
2022-11-17T00:34:55.453Z,9.661801
2022-11-17T00:35:55.498Z,9.661650
2022-11-17T00:36:55.432Z,9.661674
2022-11-17T00:37:55.437Z,9.661427
2022-11-17T00:38:55.420Z,9.661513
2022-11-17T00:40:00.585Z,9.661853
2022-11-17T00:40:56.435Z,9.661626
2022-11-17T00:41:55.398Z,9.661654
2022-11-17T00:42:55.382Z,9.661531
2022-11-17T00:43:55.396Z,9.661539
2022-11-17T00:44:55.388Z,9.661579
2022-11-17T00:45:55.404Z,9.661600
2022-11-17T00:46:55.377Z,9.661617
2022-11-17T00:47:55.364Z,9.661605
2022-11-17T00:48:55.346Z,9.661680
2022-11-17T00:49:55.358Z,9.661692
2022-11-17T00:50:55.343Z,9.661658
2022-11-17T00:51:55.329Z,9.661625
2022-11-17T00:52:55.326Z,9.661696
2022-11-17T00:53:55.311Z,9.661939
2022-11-17T00:54:55.295Z,9.661646
2022-11-17T00:55:56.416Z,9.661525
2022-11-17T00:56:55.279Z,9.661667
2022-11-17T00:57:55.282Z,9.661649
2022-11-17T00:58:55.291Z,9.661757
2022-11-17T00:59:55.274Z,9.661618
2022-11-17T01:00:55.278Z,9.661803
2022-11-17T01:01:55.412Z,9.661711
2022-11-17T01:02:55.242Z,9.661606
2022-11-17T01:03:55.246Z,9.661672
2022-11-17T01:04:55.231Z,9.661671
2022-11-17T01:05:55.229Z,9.661669
2022-11-17T01:06:55.348Z,9.661603
2022-11-17T01:07:55.198Z,9.661695
2022-11-17T01:08:55.207Z,9.661588
2022-11-17T01:09:55.201Z,9.661890
2022-11-17T01:10:55.193Z,9.661638
2022-11-17T01:11:55.275Z,9.661551
2022-11-17T01:12:55.285Z,9.661503
2022-11-17T01:13:55.181Z,9.661543
2022-11-17T01:14:55.158Z,9.661539
2022-11-17T01:15:56.161Z,9.661529
2022-11-17T01:16:55.164Z,9.661513
2022-11-17T01:17:55.176Z,9.661434
2022-11-17T01:18:55.152Z,9.661412
2022-11-17T01:19:55.119Z,9.661407
2022-11-17T01:20:55.120Z,9.661550
2022-11-17T01:21:55.129Z,9.661578
2022-11-17T01:22:55.097Z,9.661435
2022-11-17T01:23:55.156Z,9.661412
2022-11-17T01:24:55.085Z,9.661374
2022-11-17T01:25:55.086Z,9.661271
2022-11-17T01:26:55.092Z,9.661371
2022-11-17T01:27:55.171Z,9.661449
2022-11-17T01:28:55.101Z,9.661414
2022-11-17T01:29:55.069Z,9.661414
2022-11-17T01:30:55.065Z,9.661387
2022-11-17T01:31:55.045Z,9.661327
2022-11-17T01:32:55.042Z,9.661430
2022-11-17T01:33:55.040Z,9.661542
2022-11-17T01:34:55.051Z,9.661361
2022-11-17T01:35:55.016Z,9.661656
2022-11-17T01:36:55.063Z,9.661612
2022-11-17T01:37:55.063Z,9.661650
2022-11-17T01:38:54.992Z,9.661574
2022-11-17T01:39:55.002Z,9.661588
2022-11-17T01:40:55.053Z,9.661513
2022-11-17T01:41:54.980Z,9.661471
2022-11-17T01:42:54.971Z,9.661569
2022-11-17T01:43:55.057Z,9.661579
2022-11-17T01:44:54.978Z,9.661528
2022-11-17T01:45:55.093Z,9.661591
2022-11-17T01:47:00.669Z,9.661603
2022-11-17T01:47:55.923Z,9.661637
2022-11-17T01:48:54.921Z,9.661659
2022-11-17T01:49:54.918Z,9.661743
2022-11-17T01:50:54.947Z,9.661144
2022-11-17T01:51:54.897Z,9.661014
2022-11-17T01:52:54.888Z,9.661513
2022-11-17T01:53:54.909Z,9.661531
2022-11-17T01:54:54.879Z,9.661934
2022-11-17T01:55:54.878Z,9.661848
2022-11-17T01:56:54.910Z,9.661569
2022-11-17T01:57:54.896Z,9.661458
2022-11-17T01:58:54.866Z,9.661579
2022-11-17T01:59:54.862Z,9.661633
2022-11-17T02:00:54.839Z,9.661598
2022-11-17T02:01:55.919Z,9.661553
2022-11-17T02:02:55.814Z,9.661624
2022-11-17T02:03:54.805Z,9.661549
2022-11-17T02:04:54.801Z,9.661530
2022-11-17T02:05:54.827Z,9.661584
2022-11-17T02:06:54.830Z,9.661553
2022-11-17T02:07:54.862Z,9.661591
2022-11-17T02:08:54.794Z,9.661560
2022-11-17T02:09:54.773Z,9.661551
2022-11-17T02:10:54.763Z,9.661549
2022-11-17T02:11:54.759Z,9.661528
2022-11-17T02:12:54.802Z,9.661537
2022-11-17T02:13:54.772Z,9.661571
2022-11-17T02:14:54.758Z,9.661597
2022-11-17T02:15:54.845Z,9.661600
2022-11-17T02:16:54.776Z,9.661713
2022-11-17T02:17:54.714Z,9.661597
2022-11-17T02:18:54.751Z,9.661529
2022-11-17T02:19:54.718Z,9.661656
2022-11-17T02:20:54.716Z,9.661711
2022-11-17T02:21:54.715Z,9.661686
2022-11-17T02:22:54.693Z,9.661674
2022-11-17T02:23:54.786Z,9.661639
2022-11-17T02:24:54.680Z,9.661766
2022-11-17T02:25:54.674Z,9.661693
2022-11-17T02:26:54.682Z,9.661602
2022-11-17T02:27:54.662Z,9.661582
2022-11-17T02:28:54.643Z,9.661590
2022-11-17T02:29:54.689Z,9.661616
2022-11-17T02:30:54.651Z,9.661568
2022-11-17T02:31:54.635Z,9.661593
2022-11-17T02:32:54.619Z,9.661653
2022-11-17T02:33:54.606Z,9.661707
2022-11-17T02:34:54.632Z,9.661556
2022-11-17T02:35:54.608Z,9.661495
2022-11-17T02:36:54.600Z,9.661422
2022-11-17T02:37:54.588Z,9.661323
2022-11-17T02:38:54.581Z,9.661498
2022-11-17T02:39:54.575Z,9.661466
2022-11-17T02:40:54.588Z,9.661569
2022-11-17T02:41:54.556Z,9.661617
2022-11-17T02:42:54.549Z,9.661656
2022-11-17T02:43:54.543Z,9.661615
2022-11-17T02:44:54.541Z,9.661519
2022-11-17T02:45:54.554Z,9.661547
2022-11-17T02:46:54.517Z,9.661560
2022-11-17T02:47:54.524Z,9.661564
2022-11-17T02:48:54.504Z,9.661489
2022-11-17T02:49:54.511Z,9.661417
2022-11-17T02:50:54.512Z,9.661501
2022-11-17T02:51:54.532Z,9.661563
2022-11-17T02:52:54.521Z,9.661697
2022-11-17T02:53:54.495Z,9.661754
2022-11-17T02:54:54.477Z,9.661621
2022-11-17T02:55:54.478Z,9.661603
2022-11-17T02:56:54.586Z,9.661643
2022-11-17T02:57:54.450Z,9.661630
2022-11-17T02:58:54.454Z,9.661860
2022-11-17T02:59:54.438Z,9.662046
2022-11-17T03:00:54.425Z,9.661847
2022-11-17T03:01:54.492Z,9.661741
2022-11-17T03:02:54.450Z,9.661624
2022-11-17T03:03:54.486Z,9.661654
2022-11-17T03:04:54.389Z,9.661692
2022-11-17T03:05:54.405Z,9.661666
2022-11-17T03:06:54.410Z,9.661727
2022-11-17T03:07:54.413Z,9.661765
2022-11-17T03:08:54.380Z,9.661615
2022-11-17T03:09:54.382Z,9.661617
2022-11-17T03:10:54.355Z,9.661708
2022-11-17T03:11:54.356Z,9.661813
2022-11-17T03:12:54.343Z,9.661790
2022-11-17T03:13:54.351Z,9.661813
2022-11-17T03:14:54.338Z,9.661874
2022-11-17T03:15:54.333Z,9.661823
2022-11-17T03:16:54.324Z,9.661754
2022-11-17T03:17:54.326Z,9.661749
2022-11-17T03:18:54.319Z,9.661708
2022-11-17T03:19:54.379Z,9.661691
2022-11-17T03:20:54.303Z,9.661657
2022-11-17T03:21:54.309Z,9.661658
2022-11-17T03:22:54.281Z,9.662025
2022-11-17T03:23:54.270Z,9.661879
2022-11-17T03:24:54.288Z,9.661832
2022-11-17T03:25:54.262Z,9.661738
2022-11-17T03:26:54.246Z,9.661757
2022-11-17T03:27:54.255Z,9.661696
2022-11-17T03:28:54.250Z,9.661727
2022-11-17T03:29:54.256Z,9.661782
2022-11-17T03:30:54.228Z,9.661581
2022-11-17T03:31:54.205Z,9.661592
2022-11-17T03:32:54.207Z,9.661641
2022-11-17T03:33:54.206Z,9.661573
2022-11-17T03:34:54.191Z,9.661659
2022-11-17T03:35:54.397Z,9.661761
2022-11-17T03:36:54.177Z,9.661585
2022-11-17T03:37:54.181Z,9.661613
2022-11-17T03:38:54.156Z,9.661622
2022-11-17T03:39:54.154Z,9.661574
2022-11-17T03:40:54.256Z,9.661635
2022-11-17T03:41:54.143Z,9.661773
2022-11-17T03:42:54.135Z,9.661734
2022-11-17T03:43:54.137Z,9.661629
2022-11-17T03:44:54.125Z,9.661626
2022-11-17T03:45:54.116Z,9.661624
2022-11-17T03:46:54.213Z,9.661545
2022-11-17T03:47:54.092Z,9.661602
2022-11-17T03:48:54.086Z,9.661670
2022-11-17T03:49:54.095Z,9.661652
2022-11-17T03:50:54.097Z,9.661612
2022-11-17T03:51:54.172Z,9.661573
2022-11-17T03:52:54.084Z,9.661517
2022-11-17T03:53:54.070Z,9.661584
2022-11-17T03:54:54.081Z,9.661450
2022-11-17T03:55:54.037Z,9.661499
2022-11-17T03:56:54.050Z,9.661556
2022-11-17T03:57:54.135Z,9.661673
2022-11-17T03:58:54.014Z,9.661767
2022-11-17T03:59:54.018Z,9.661809
2022-11-17T04:00:54.010Z,9.661663
2022-11-17T04:01:54.029Z,9.661561
2022-11-17T04:02:54.339Z,9.661580
2022-11-17T04:03:54.004Z,9.661569
2022-11-17T04:04:53.988Z,9.661541
2022-11-17T04:05:54.005Z,9.661558
2022-11-17T04:06:54.021Z,9.661588
2022-11-17T04:07:53.990Z,9.661604
2022-11-17T04:08:54.090Z,9.661615
2022-11-17T04:09:53.949Z,9.661605
2022-11-17T04:10:53.956Z,9.661654
2022-11-17T04:11:53.946Z,9.661590
2022-11-17T04:12:53.939Z,9.661505
2022-11-17T04:13:53.959Z,9.661603
2022-11-17T04:14:53.920Z,9.661486
2022-11-17T04:15:53.904Z,9.661642
2022-11-17T04:16:53.910Z,9.661737
2022-11-17T04:17:53.878Z,9.661702
2022-11-17T04:18:58.875Z,9.661644
2022-11-17T04:19:53.890Z,9.661595
2022-11-17T04:20:53.934Z,9.661633
2022-11-17T04:21:53.905Z,9.661680
2022-11-17T04:22:53.860Z,9.661578
2022-11-17T04:23:53.939Z,9.661624
2022-11-17T04:24:53.888Z,9.661536
2022-11-17T04:25:53.832Z,9.661551
2022-11-17T04:26:53.845Z,9.661671
2022-11-17T04:27:53.842Z,9.661625
2022-11-17T04:28:53.810Z,9.661632
2022-11-17T04:29:53.856Z,9.661446
2022-11-17T04:30:53.799Z,9.661442
2022-11-17T04:31:53.793Z,9.661528
2022-11-17T04:32:53.790Z,9.661619
2022-11-17T04:33:53.778Z,9.661573
2022-11-17T04:34:53.764Z,9.661624
2022-11-17T04:35:53.900Z,9.661696
2022-11-17T04:36:53.765Z,9.661600
2022-11-17T04:37:53.754Z,9.661621
2022-11-17T04:38:53.746Z,9.661626
2022-11-17T04:39:53.818Z,9.661638
2022-11-17T04:40:54.864Z,9.661675
2022-11-17T04:41:53.722Z,9.661683
2022-11-17T04:42:53.737Z,9.661603
2022-11-17T04:43:53.706Z,9.661541
2022-11-17T04:44:53.721Z,9.661489
2022-11-17T04:45:53.701Z,9.661752
2022-11-17T04:46:53.759Z,9.661735
2022-11-17T04:47:53.733Z,9.661729
2022-11-17T04:48:53.692Z,9.661657
2022-11-17T04:49:53.678Z,9.661535
2022-11-17T04:50:53.653Z,9.661532
2022-11-17T04:51:53.699Z,9.661566
2022-11-17T04:52:53.669Z,9.661656
2022-11-17T04:53:53.650Z,9.661594
2022-11-17T04:54:53.630Z,9.661633
2022-11-17T04:55:53.704Z,9.661593
2022-11-17T04:56:53.624Z,9.661646
2022-11-17T04:57:53.860Z,9.661549
2022-11-17T04:58:53.593Z,9.661580
2022-11-17T04:59:53.616Z,9.661608
2022-11-17T05:00:53.608Z,9.661648
2022-11-17T05:01:53.661Z,9.661607
2022-11-17T05:02:53.699Z,9.661566
2022-11-17T05:03:53.567Z,9.661614
2022-11-17T05:04:53.567Z,9.661636
2022-11-17T05:05:53.622Z,9.661503
2022-11-17T05:06:53.600Z,9.661622
2022-11-17T05:07:53.560Z,9.661496
2022-11-17T05:08:53.573Z,9.661715
2022-11-17T05:09:53.523Z,9.661530
2022-11-17T05:10:53.555Z,9.661511
2022-11-17T05:11:53.524Z,9.661574
2022-11-17T05:12:53.533Z,9.661538
2022-11-17T05:13:53.627Z,9.661572
2022-11-17T05:14:53.515Z,9.661590
2022-11-17T05:15:53.505Z,9.661637
2022-11-17T05:16:53.487Z,9.661617
2022-11-17T05:17:53.469Z,9.661504
2022-11-17T05:18:53.466Z,9.661569
2022-11-17T05:19:53.489Z,9.661634
2022-11-17T05:20:53.475Z,9.661622
2022-11-17T05:21:53.455Z,9.661419
2022-11-17T05:22:53.454Z,9.661388
2022-11-17T05:23:53.427Z,9.661504
2022-11-17T05:24:53.488Z,9.661592
2022-11-17T05:25:53.443Z,9.661540
2022-11-17T05:26:53.429Z,9.661580
2022-11-17T05:27:53.412Z,9.661593
2022-11-17T05:28:53.414Z,9.661502
2022-11-17T05:29:53.401Z,9.661643
2022-11-17T05:30:53.409Z,9.661651
2022-11-17T05:31:53.381Z,9.661573
2022-11-17T05:32:53.368Z,9.661528
2022-11-17T05:33:53.370Z,9.661695
2022-11-17T05:34:53.367Z,9.661687
2022-11-17T05:35:53.394Z,9.661670
2022-11-17T05:36:53.357Z,9.661597
2022-11-17T05:37:53.344Z,9.661716
2022-11-17T05:38:53.354Z,9.661675
2022-11-17T05:39:53.343Z,9.661676
2022-11-17T05:40:53.321Z,9.661659
2022-11-17T05:41:54.342Z,9.661588
2022-11-17T05:42:57.054Z,9.661434
2022-11-17T05:43:53.385Z,9.661449
2022-11-17T05:44:53.289Z,9.661466
2022-11-17T05:45:53.284Z,9.661535
2022-11-17T05:46:53.300Z,9.661590
2022-11-17T05:47:53.295Z,9.661637
2022-11-17T05:48:53.269Z,9.661622
2022-11-17T05:49:53.268Z,9.661555
2022-11-17T05:50:54.254Z,9.661465
2022-11-17T05:51:54.075Z,9.661345
2022-11-17T05:52:53.272Z,9.661376
2022-11-17T05:53:53.240Z,9.661491
2022-11-17T05:54:53.218Z,9.661706
2022-11-17T05:55:53.223Z,9.661156
2022-11-17T05:56:53.220Z,9.662056
2022-11-17T05:57:53.228Z,9.661734
2022-11-17T05:58:53.203Z,9.661634
2022-11-17T05:59:53.173Z,9.661781
2022-11-17T06:00:53.198Z,9.661691
2022-11-17T06:01:53.179Z,9.661322
2022-11-17T06:02:53.183Z,9.661447
2022-11-17T06:03:53.188Z,9.661524
2022-11-17T06:04:53.172Z,9.661643
2022-11-17T06:05:53.135Z,9.661590
2022-11-17T06:06:53.155Z,9.661768
2022-11-17T06:07:53.163Z,9.661656
2022-11-17T06:08:53.201Z,9.661606
2022-11-17T06:09:53.140Z,9.661482
2022-11-17T06:10:53.100Z,9.661456
2022-11-17T06:11:53.191Z,9.661550
2022-11-17T06:12:53.128Z,9.661502
2022-11-17T06:13:53.096Z,9.661530
2022-11-17T06:14:53.064Z,9.661441
2022-11-17T06:15:53.913Z,9.661347
2022-11-17T06:16:53.090Z,9.661549
2022-11-17T06:17:53.055Z,9.661398
2022-11-17T06:18:53.168Z,9.661570
2022-11-17T06:19:53.049Z,9.661551
2022-11-17T06:20:53.041Z,9.661645
2022-11-17T06:22:11.044Z,9.661577
2022-11-17T06:22:55.027Z,9.661703
2022-11-17T06:23:53.040Z,9.661562
2022-11-17T06:24:53.002Z,9.661516
2022-11-17T06:25:53.055Z,9.661638
2022-11-17T06:26:53.006Z,9.661627
2022-11-17T06:27:53.011Z,9.661573
2022-11-17T06:28:52.983Z,9.661531
2022-11-17T06:29:53.103Z,9.661495
2022-11-17T06:30:52.954Z,9.661469
2022-11-17T06:31:53.048Z,9.661407
2022-11-17T06:32:52.947Z,9.661439
2022-11-17T06:33:52.958Z,9.661511
2022-11-17T06:34:55.989Z,9.661554
2022-11-17T06:35:52.943Z,9.661489
2022-11-17T06:36:52.915Z,9.661494
2022-11-17T06:37:52.907Z,9.661512
2022-11-17T06:38:52.910Z,9.661459
2022-11-17T06:39:52.914Z,9.661572
2022-11-17T06:40:52.924Z,9.661536
2022-11-17T06:41:52.895Z,9.661575
2022-11-17T06:42:52.880Z,9.661457
2022-11-17T06:43:52.882Z,9.661443
2022-11-17T06:44:52.888Z,9.661564
2022-11-17T06:45:52.997Z,9.661608
2022-11-17T06:46:52.844Z,9.661458
2022-11-17T06:47:52.929Z,9.661527
2022-11-17T06:48:52.845Z,9.661471
2022-11-17T06:49:52.830Z,9.661312
2022-11-17T06:50:52.829Z,9.661457
2022-11-17T06:51:52.839Z,9.661574
2022-11-17T06:52:52.879Z,9.661502
2022-11-17T06:53:52.851Z,9.661610
2022-11-17T06:54:53.618Z,9.661622
2022-11-17T06:55:52.839Z,9.661523
2022-11-17T06:56:52.959Z,9.661491
2022-11-17T06:57:53.682Z,9.661509
2022-11-17T06:58:53.816Z,9.661550
2022-11-17T06:59:52.825Z,9.661625
2022-11-17T07:00:52.861Z,9.661508
2022-11-17T07:01:52.779Z,9.661567
2022-11-17T07:02:52.923Z,9.661593
2022-11-17T07:03:52.846Z,9.661478
2022-11-17T07:04:52.796Z,9.661521
2022-11-17T07:05:52.775Z,9.661547
2022-11-17T07:06:52.806Z,9.661502
2022-11-17T07:07:52.803Z,9.661553
2022-11-17T07:08:52.751Z,9.661679
2022-11-17T07:09:52.760Z,9.661689
2022-11-17T07:10:52.754Z,9.661435
2022-11-17T07:11:52.723Z,9.661407
2022-11-17T07:12:52.724Z,9.661491
2022-11-17T07:13:52.732Z,9.661531
2022-11-17T07:14:52.716Z,9.661631
2022-11-17T07:15:52.718Z,9.661597
2022-11-17T07:16:52.723Z,9.661537
2022-11-17T07:17:52.679Z,9.661621
2022-11-17T07:18:52.811Z,9.661638
2022-11-17T07:19:52.769Z,9.661582
2022-11-17T07:20:52.669Z,9.661510
2022-11-17T07:21:52.659Z,9.661512
2022-11-17T07:22:52.687Z,9.661607
2022-11-17T07:23:52.658Z,9.661629
2022-11-17T07:24:52.686Z,9.661603
2022-11-17T07:25:52.618Z,9.661720
2022-11-17T07:26:52.614Z,9.662015
2022-11-17T07:27:52.637Z,9.661987
2022-11-17T07:28:52.597Z,9.661651
2022-11-17T07:29:52.618Z,9.661507
2022-11-17T07:30:52.637Z,9.661483
2022-11-17T07:31:52.586Z,9.661695
2022-11-17T07:32:54.800Z,9.661666
2022-11-17T07:33:52.588Z,9.661779
2022-11-17T07:34:52.559Z,9.661731
2022-11-17T07:35:52.715Z,9.661846
2022-11-17T07:36:52.603Z,9.661972
2022-11-17T07:37:52.552Z,9.661973
2022-11-17T07:38:52.567Z,9.662008
2022-11-17T07:39:52.557Z,9.661724
2022-11-17T07:40:52.533Z,9.661535
2022-11-17T07:41:52.542Z,9.661592
2022-11-17T07:42:52.511Z,9.661465
2022-11-17T07:43:52.532Z,9.661692
2022-11-17T07:44:52.532Z,9.661748
2022-11-17T07:45:52.503Z,9.661665
2022-11-17T07:46:52.594Z,9.661823
2022-11-17T07:47:52.473Z,9.661977
2022-11-17T07:48:52.480Z,9.661929
2022-11-17T07:49:53.506Z,9.662068
2022-11-17T07:50:52.467Z,9.661837
2022-11-17T07:51:52.546Z,9.661774
2022-11-17T07:52:52.455Z,9.661684
2022-11-17T07:53:52.449Z,9.661668
2022-11-17T07:54:52.463Z,9.661719
2022-11-17T07:55:52.437Z,9.661913
2022-11-17T07:56:52.414Z,9.661723
2022-11-17T07:57:52.563Z,9.661631
2022-11-17T07:58:52.433Z,9.661796
2022-11-17T07:59:52.394Z,9.661687
2022-11-17T08:00:52.452Z,9.661628
2022-11-17T08:01:52.399Z,9.661784
2022-11-17T08:02:52.444Z,9.661758
2022-11-17T08:03:52.495Z,9.661457
2022-11-17T08:04:52.381Z,9.661364
2022-11-17T08:05:52.344Z,9.661569
2022-11-17T08:06:52.438Z,9.661609
2022-11-17T08:07:52.452Z,9.661775
2022-11-17T08:08:52.384Z,9.661487
2022-11-17T08:09:52.388Z,9.661356
2022-11-17T08:10:52.334Z,9.661566
2022-11-17T08:11:52.349Z,9.661878
2022-11-17T08:12:52.308Z,9.661548
2022-11-17T08:13:52.312Z,9.661664
2022-11-17T08:14:52.318Z,9.661392
2022-11-17T08:15:52.283Z,9.661491
2022-11-17T08:16:52.287Z,9.661635
2022-11-17T08:17:52.261Z,9.661531
2022-11-17T08:18:52.855Z,9.661820
2022-11-17T08:19:53.356Z,9.661649
2022-11-17T08:20:52.314Z,9.661592
2022-11-17T08:21:52.247Z,9.661250
2022-11-17T08:22:52.231Z,9.660591
2022-11-17T08:23:52.330Z,9.660500
2022-11-17T08:24:52.232Z,9.660706
2022-11-17T08:25:52.265Z,9.661051
2022-11-17T08:26:52.225Z,9.661300
2022-11-17T08:27:52.248Z,9.661427
2022-11-17T08:28:57.948Z,9.661352
2022-11-17T08:29:52.190Z,9.661310
2022-11-17T08:30:52.207Z,9.661462
2022-11-17T08:31:52.196Z,9.661505
2022-11-17T08:32:52.156Z,9.661472
2022-11-17T08:33:52.177Z,9.661483
2022-11-17T08:34:52.156Z,9.661393
2022-11-17T08:35:52.165Z,9.661364
2022-11-17T08:36:52.161Z,9.661467
2022-11-17T08:37:52.135Z,9.661447
2022-11-17T08:38:52.173Z,9.661412
2022-11-17T08:39:52.147Z,9.661366
2022-11-17T08:40:52.187Z,9.661472
2022-11-17T08:41:52.120Z,9.661337
2022-11-17T08:42:56.150Z,9.661276
2022-11-17T08:43:53.077Z,9.661139
2022-11-17T08:44:52.082Z,9.661234
2022-11-17T08:45:52.088Z,9.661214
2022-11-17T08:46:52.054Z,9.661191
2022-11-17T08:47:52.155Z,9.661628
2022-11-17T08:48:56.836Z,9.661867
2022-11-17T08:49:53.061Z,9.661875
2022-11-17T08:50:52.048Z,9.661944
2022-11-17T08:51:52.067Z,9.661773
2022-11-17T08:52:52.078Z,9.661869
2022-11-17T08:53:52.024Z,9.661695
2022-11-17T08:54:52.021Z,9.661341
2022-11-17T08:55:52.094Z,9.661186
2022-11-17T08:56:52.069Z,9.661273
2022-11-17T08:57:52.018Z,9.661266
2022-11-17T08:58:52.028Z,9.661422
2022-11-17T08:59:51.972Z,9.661522
2022-11-17T09:00:52.034Z,9.661564
2022-11-17T09:01:51.956Z,9.661497
2022-11-17T09:02:51.989Z,9.661435
2022-11-17T09:03:51.955Z,9.661526
2022-11-17T09:04:51.919Z,9.661437
2022-11-17T09:05:51.908Z,9.661473
2022-11-17T09:06:51.932Z,9.661396
2022-11-17T09:07:52.024Z,9.661576
2022-11-17T09:08:51.979Z,9.661544
2022-11-17T09:09:51.934Z,9.661710
2022-11-17T09:10:51.850Z,9.661824
2022-11-17T09:11:52.002Z,9.661641
2022-11-17T09:12:51.891Z,9.661632
2022-11-17T09:13:51.863Z,9.661556
2022-11-17T09:14:51.904Z,9.661599
2022-11-17T09:15:51.862Z,9.661480
2022-11-17T09:16:51.862Z,9.661628
2022-11-17T09:17:52.855Z,9.661557
2022-11-17T09:18:51.860Z,9.661616
2022-11-17T09:19:51.871Z,9.661558
2022-11-17T09:20:51.873Z,9.661603
2022-11-17T09:21:51.812Z,9.661460
2022-11-17T09:22:51.818Z,9.661478
2022-11-17T09:23:51.805Z,9.661772
2022-11-17T09:24:51.807Z,9.661657
2022-11-17T09:25:51.807Z,9.661571
2022-11-17T09:26:51.794Z,9.661564
2022-11-17T09:27:51.895Z,9.661427
2022-11-17T09:28:51.771Z,9.661533
2022-11-17T09:29:51.749Z,9.661453
2022-11-17T09:30:51.786Z,9.661522
2022-11-17T09:31:51.913Z,9.661436
2022-11-17T09:32:51.772Z,9.661606
2022-11-17T09:33:51.848Z,9.661613
2022-11-17T09:34:51.897Z,9.661420
2022-11-17T09:35:51.705Z,9.661349
2022-11-17T09:36:51.835Z,9.661468
2022-11-17T09:37:51.700Z,9.661601
2022-11-17T09:38:51.747Z,9.661956
2022-11-17T09:39:51.705Z,9.661571
2022-11-17T09:40:51.674Z,9.661531
2022-11-17T09:41:51.692Z,9.661336
2022-11-17T09:42:51.737Z,9.661296
2022-11-17T09:43:51.716Z,9.661308
2022-11-17T09:44:51.676Z,9.661324
2022-11-17T09:45:51.718Z,9.661465
2022-11-17T09:46:51.646Z,9.661588
2022-11-17T09:47:51.674Z,9.661585
2022-11-17T09:48:51.704Z,9.661444
2022-11-17T09:49:58.269Z,9.661461
2022-11-17T09:50:52.651Z,9.661343
2022-11-17T09:51:51.602Z,9.661310
2022-11-17T09:52:51.604Z,9.661376
2022-11-17T09:53:51.701Z,9.661697
2022-11-17T09:54:51.633Z,9.661600
2022-11-17T09:55:51.594Z,9.661418
2022-11-17T09:56:51.606Z,9.661391
2022-11-17T09:57:51.619Z,9.661410
2022-11-17T09:58:51.686Z,9.661519
2022-11-17T09:59:51.641Z,9.661370
2022-11-17T10:00:51.555Z,9.661583
2022-11-17T10:01:51.577Z,9.661971
2022-11-17T10:02:52.556Z,9.661975
2022-11-17T10:03:51.547Z,9.662259
2022-11-17T10:04:51.586Z,9.662259
2022-11-17T10:05:51.520Z,9.662259
2022-11-17T10:06:51.581Z,9.662259
2022-11-17T10:07:51.533Z,9.662259
2022-11-17T10:08:51.539Z,9.662259
2022-11-17T10:09:51.633Z,9.662259
2022-11-17T10:10:51.514Z,9.662259
2022-11-17T10:11:51.505Z,9.662259
2022-11-17T10:12:51.536Z,9.662259
2022-11-17T10:13:52.557Z,9.662259
2022-11-17T10:14:51.485Z,9.661884
2022-11-17T10:15:51.554Z,9.661704
2022-11-17T10:16:51.433Z,9.661869
2022-11-17T10:17:51.519Z,9.661439
2022-11-17T10:18:51.448Z,9.661325
2022-11-17T10:19:51.469Z,9.661883
2022-11-17T10:20:51.525Z,9.662386
2022-11-17T10:21:51.412Z,9.662104
2022-11-17T10:22:51.447Z,9.661919
2022-11-17T10:23:51.433Z,9.661780
2022-11-17T10:24:51.418Z,9.661741
2022-11-17T10:25:51.415Z,9.661888
2022-11-17T10:26:51.424Z,9.661960
2022-11-17T10:27:51.373Z,9.661757
2022-11-17T10:28:51.374Z,9.661364
2022-11-17T10:29:51.383Z,9.661375
2022-11-17T10:30:51.374Z,9.661512
2022-11-17T10:31:51.610Z,9.661479
2022-11-17T10:32:51.352Z,9.661995
2022-11-17T10:33:51.380Z,9.661910
2022-11-17T10:34:51.323Z,9.662367
2022-11-17T10:35:51.346Z,9.663346
2022-11-17T10:36:51.336Z,9.661646
2022-11-17T10:37:51.451Z,9.661553
2022-11-17T10:38:51.334Z,9.661697
2022-11-17T10:39:51.334Z,9.661776
2022-11-17T10:40:51.319Z,9.661709
2022-11-17T10:41:51.323Z,9.661937
2022-11-17T10:42:51.308Z,9.661625
2022-11-17T10:43:51.322Z,9.661454
2022-11-17T10:44:51.314Z,9.661560
2022-11-17T10:45:51.278Z,9.661530
2022-11-17T10:46:52.652Z,9.661677
2022-11-17T10:47:52.392Z,9.661780
2022-11-17T10:48:51.259Z,9.661549
2022-11-17T10:49:51.329Z,9.661606
2022-11-17T10:50:51.251Z,9.661566
2022-11-17T10:51:51.207Z,9.661543
2022-11-17T10:52:51.225Z,9.661629
2022-11-17T10:53:51.361Z,9.661591
2022-11-17T10:54:51.233Z,9.661717
2022-11-17T10:55:51.172Z,9.661823
2022-11-17T10:56:51.216Z,9.661812
2022-11-17T10:57:51.215Z,9.661801
2022-11-17T10:58:51.317Z,9.661681
2022-11-17T10:59:56.840Z,9.661739
2022-11-17T11:00:53.237Z,9.661655
2022-11-17T11:01:51.260Z,9.661569
2022-11-17T11:02:51.137Z,9.661651
2022-11-17T11:03:51.169Z,9.661740
2022-11-17T11:04:51.186Z,9.661840
2022-11-17T11:05:51.170Z,9.661841
2022-11-17T11:06:51.175Z,9.661798
2022-11-17T11:07:51.148Z,9.661603
2022-11-17T11:08:51.138Z,9.661546
2022-11-17T11:09:51.161Z,9.661583
2022-11-17T11:10:51.517Z,9.661925
2022-11-17T11:11:51.141Z,9.661990
2022-11-17T11:12:51.116Z,9.661701
2022-11-17T11:13:51.070Z,9.661697
2022-11-17T11:14:51.105Z,9.661787
2022-11-17T11:15:51.115Z,9.662030
2022-11-17T11:16:51.081Z,9.662221
2022-11-17T11:17:51.090Z,9.662125
2022-11-17T11:18:51.051Z,9.662024
2022-11-17T11:19:51.064Z,9.661971
2022-11-17T11:20:51.223Z,9.662063
2022-11-17T11:21:51.102Z,9.662022
2022-11-17T11:22:51.031Z,9.662141
2022-11-17T11:23:51.028Z,9.662071
2022-11-17T11:24:51.026Z,9.661958
2022-11-17T11:25:51.008Z,9.661961
2022-11-17T11:26:51.058Z,9.661948
2022-11-17T11:27:51.005Z,9.662040
2022-11-17T11:28:54.638Z,9.662240
2022-11-17T11:29:51.008Z,9.662268
2022-11-17T11:30:50.999Z,9.662094
2022-11-17T11:31:51.061Z,9.662070
2022-11-17T11:32:51.014Z,9.662113
2022-11-17T11:33:51.018Z,9.662315
2022-11-17T11:34:50.966Z,9.662179
2022-11-17T11:35:51.026Z,9.662109
2022-11-17T11:36:51.015Z,9.662213
2022-11-17T11:37:50.983Z,9.661935
2022-11-17T11:38:50.936Z,9.661691
2022-11-17T11:39:51.923Z,9.661557
2022-11-17T11:40:50.901Z,9.661557
2022-11-17T11:41:50.923Z,9.661557
2022-11-17T11:42:50.927Z,9.661282
2022-11-17T11:43:50.932Z,9.661250
2022-11-17T11:44:50.911Z,9.661565